Time;durP1;ratioP1;P1;durP2;ratioP2;P2;SDS_P1;SDS_P2;PMS_P1;PMS_P2;Temp;Humidity;BMP_temperature;BMP_pressure;BME280_temperature;BME280_humidity;BME280_pressure;Samples;Min_cycle;Max_cycle;Signal;HPM_P1;HPM_P2
2022/01/11 00:01:04;;;;;;;3.33;1.92;;;29.20;69.00;;;;;;4125699;28;20135;-54
2022/01/11 00:03:06;;;;;;;4.22;2.00;;;29.20;69.00;;;;;;4128418;28;20067;-56
2022/01/11 00:05:17;;;;;;;3.65;1.80;;;29.20;69.20;;;;;;4131318;28;20043;-57
2022/01/11 00:07:22;;;;;;;3.28;1.60;;;29.30;69.40;;;;;;4133715;28;20815;-57
2022/01/11 00:09:34;;;;;;;3.35;1.60;;;29.30;69.50;;;;;;4135273;28;20477;-55
2022/01/11 00:11:37;;;;;;;3.13;1.58;;;29.30;69.40;;;;;;4136758;28;20037;-56
2022/01/11 00:13:42;;;;;;;2.95;1.55;;;29.40;69.40;;;;;;4127339;28;20098;-54
2022/01/11 00:15:44;;;;;;;3.05;1.63;;;29.40;69.80;;;;;;4126952;28;20399;-51
2022/01/11 00:17:46;;;;;;;;;;;29.40;69.90;;;;;;4135233;28;20037;-56
2022/01/11 00:19:49;;;;;;;3.15;1.60;;;29.40;69.80;;;;;;4133019;28;19916;-58
2022/01/11 00:21:51;;;;;;;4.32;1.90;;;29.50;70.00;;;;;;4129727;28;20071;-50
2022/01/11 00:26:15;;;;;;;2.50;1.65;;;29.50;70.00;;;;;;4127864;28;20049;-52
2022/01/11 00:28:19;;;;;;;2.08;1.45;;;29.50;69.90;;;;;;4126915;28;20039;-57
2022/01/11 00:30:22;;;;;;;2.28;1.27;;;29.60;70.10;;;;;;4136068;28;20139;-53
2022/01/11 00:32:37;;;;;;;3.95;1.55;;;29.60;69.90;;;;;;4127708;28;20848;-51
2022/01/11 00:35:03;;;;;;;2.75;1.35;;;29.60;70.10;;;;;;4133581;28;20981;-53
2022/01/11 00:37:01;;;;;;;3.08;1.60;;;29.70;70.20;;;;;;4136577;28;20126;-55
2022/01/11 00:39:03;;;;;;;2.72;1.15;;;29.70;69.90;;;;;;4135474;28;20705;-53
2022/01/11 00:41:08;;;;;;;4.17;1.50;;;29.70;69.80;;;;;;4130106;28;20139;-53
2022/01/11 00:43:10;;;;;;;2.30;1.33;;;29.70;70.40;;;;;;4125839;28;20788;-55
2022/01/11 00:45:13;;;;;;;2.50;1.35;;;29.70;69.80;;;;;;4136679;28;20878;-52
2022/01/11 00:47:16;;;;;;;3.17;1.50;;;29.70;69.90;;;;;;4128227;28;20036;-51
2022/01/11 00:49:18;;;;;;;2.03;1.40;;;29.70;70.10;;;;;;4127713;28;20041;-53
2022/01/11 00:51:20;;;;;;;2.20;1.27;;;29.70;70.00;;;;;;4131898;28;20044;-56
2022/01/11 00:53:23;;;;;;;3.13;1.47;;;29.70;70.30;;;;;;4137452;28;20171;-50
2022/01/11 00:55:25;;;;;;;1.83;1.17;;;29.70;70.20;;;;;;4129248;28;20084;-54
2022/01/11 00:57:28;;;;;;;4.68;1.48;;;29.70;70.20;;;;;;4129492;28;20814;-53
2022/01/11 00:59:30;;;;;;;2.28;1.20;;;29.70;70.20;;;;;;4132977;28;20045;-52
2022/01/11 01:02:13;;;;;;;3.95;1.70;;;29.80;69.50;;;;;;4131093;27;20423;-52
2022/01/11 01:04:15;;;;;;;2.55;1.52;;;29.80;69.80;;;;;;4131813;28;20061;-52
2022/01/11 01:06:17;;;;;;;4.27;2.00;;;29.80;69.60;;;;;;4137211;28;20036;-51
2022/01/11 01:08:19;;;;;;;5.13;2.65;;;29.80;69.40;;;;;;4147187;28;20085;-52
2022/01/11 01:10:26;;;;;;;4.82;2.78;;;29.80;69.10;;;;;;4139559;28;20100;-54
2022/01/11 01:12:29;;;;;;;3.63;2.20;;;29.80;69.00;;;;;;4138676;28;20047;-52
2022/01/11 01:14:31;;;;;;;10.55;3.58;;;29.80;68.90;;;;;;4136909;28;20043;-55
2022/01/11 01:16:33;;;;;;;8.40;4.80;;;29.80;68.70;;;;;;4145139;28;20043;-52
2022/01/11 01:18:36;;;;;;;8.20;4.30;;;29.80;69.30;;;;;;4137818;28;20037;-55
2022/01/11 01:20:37;;;;;;;;;;;29.80;68.70;;;;;;4137810;28;20402;-50
2022/01/11 01:22:40;;;;;;;5.47;3.75;;;29.80;68.70;;;;;;4142670;28;20018;-53
2022/01/11 01:24:42;;;;;;;5.97;3.45;;;29.80;68.70;;;;;;4142141;28;21030;-55
2022/01/11 01:26:44;;;;;;;5.93;3.40;;;29.90;68.80;;;;;;4139055;28;20055;-49
2022/01/11 01:28:48;;;;;;;6.28;3.55;;;29.80;68.70;;;;;;4145374;28;20500;-55
2022/01/11 01:30:52;;;;;;;6.80;3.88;;;29.90;68.70;;;;;;4151272;28;20033;-53
2022/01/11 01:32:54;;;;;;;6.85;4.30;;;29.90;68.80;;;;;;4146661;28;21594;-54
2022/01/11 01:35:01;;;;;;;9.10;4.20;;;29.90;68.80;;;;;;4147586;28;20113;-50
2022/01/11 01:37:07;;;;;;;8.05;4.60;;;29.90;68.80;;;;;;4146376;28;20047;-52
2022/01/11 01:39:10;;;;;;;7.00;4.30;;;29.90;69.00;;;;;;4156071;28;20092;-56
2022/01/11 01:41:20;;;;;;;10.68;7.57;;;29.90;69.30;;;;;;4151274;28;20675;-51
2022/01/11 01:43:24;;;;;;;13.13;7.43;;;29.90;69.20;;;;;;4147966;28;20055;-52
2022/01/11 01:45:26;;;;;;;8.45;6.68;;;29.90;69.40;;;;;;4138234;28;20063;-50
2022/01/11 01:47:28;;;;;;;10.77;7.03;;;29.90;69.70;;;;;;4145495;28;20040;-54
2022/01/11 01:49:33;;;;;;;10.73;7.30;;;29.90;69.70;;;;;;4149599;28;20036;-52
2022/01/11 01:51:35;;;;;;;14.13;7.45;;;29.90;69.70;;;;;;4139367;28;20940;-48
2022/01/11 01:53:43;;;;;;;11.10;8.13;;;29.90;69.70;;;;;;4137581;28;20437;-50
2022/01/11 01:55:47;;;;;;;10.60;6.55;;;30.00;69.90;;;;;;4139872;28;20059;-54
2022/01/11 01:57:51;;;;;;;11.27;7.47;;;30.00;70.20;;;;;;4149469;28;20070;-53
2022/01/11 01:59:53;;;;;;;10.65;8.13;;;30.00;70.30;;;;;;4143582;28;21547;-53
2022/01/11 02:01:56;;;;;;;11.82;7.80;;;30.00;70.40;;;;;;4137708;28;20393;-51
2022/01/11 02:03:59;;;;;;;11.65;7.80;;;30.00;70.40;;;;;;4141102;28;20036;-55
2022/01/11 02:06:01;;;;;;;8.52;6.68;;;30.00;70.40;;;;;;4149433;28;20041;-56
2022/01/11 02:08:04;;;;;;;12.93;8.20;;;30.10;70.50;;;;;;4138734;28;20033;-51
2022/01/11 02:10:08;;;;;;;11.88;8.77;;;30.10;70.50;;;;;;4137685;28;20348;-52
2022/01/11 02:12:10;;;;;;;11.43;7.47;;;30.10;70.50;;;;;;4142919;28;20048;-55
2022/01/11 02:14:12;;;;;;;13.63;7.53;;;30.10;70.50;;;;;;4135378;28;21707;-51
2022/01/11 02:16:15;;;;;;;13.27;7.65;;;30.10;70.60;;;;;;4128534;28;20080;-52
2022/01/11 02:18:22;;;;;;;;;;;30.20;70.70;;;;;;4132121;28;20049;-48
2022/01/11 02:20:24;;;;;;;13.35;7.80;;;30.10;70.70;;;;;;4137204;28;20229;-55
2022/01/11 02:22:27;;;;;;;16.73;8.05;;;30.20;71.00;;;;;;4135842;28;22190;-53
2022/01/11 02:24:32;;;;;;;19.75;8.00;;;30.20;71.00;;;;;;4129378;28;20083;-50
2022/01/11 02:26:35;;;;;;;12.77;7.63;;;30.20;71.20;;;;;;4130277;28;20048;-53
2022/01/11 02:28:38;;;;;;;14.88;7.35;;;30.20;71.30;;;;;;4138307;28;20514;-52
2022/01/11 02:30:41;;;;;;;12.38;8.10;;;30.30;71.40;;;;;;4129134;28;20041;-53
2022/01/11 02:32:51;;;;;;;15.35;7.55;;;30.30;71.30;;;;;;4127020;28;20159;-51
2022/01/11 02:34:53;;;;;;;13.77;7.70;;;30.30;71.40;;;;;;4125368;28;20052;-53
2022/01/11 02:36:55;;;;;;;9.03;6.50;;;30.30;71.30;;;;;;4043463;28;20054;-55
2022/01/11 02:38:59;;;;;;;22.27;14.57;;;30.40;71.40;;;;;;4099146;28;20407;-55
2022/01/11 02:41:02;;;;;;;29.27;23.30;;;30.40;69.70;;;;;;4091681;28;20061;-52
2022/01/11 02:43:04;;;;;;;37.63;30.33;;;30.30;66.00;;;;;;4039772;28;20048;-51
2022/01/11 02:45:16;;;;;;;38.67;32.53;;;30.10;65.70;;;;;;4129731;28;20034;-49
2022/01/11 02:47:20;;;;;;;46.30;37.63;;;30.10;68.50;;;;;;4098520;28;20390;-50
2022/01/11 02:49:22;;;;;;;48.25;40.55;;;29.90;66.50;;;;;;4097756;28;21189;-48
2022/01/11 02:51:25;;;;;;;45.58;38.45;;;29.80;63.50;;;;;;4093856;28;20401;-47
2022/01/11 02:53:28;;;;;;;40.03;34.75;;;29.80;65.20;;;;;;4094495;28;20037;-50
2022/01/11 02:55:33;;;;;;;37.80;31.88;;;29.70;66.30;;;;;;4102219;28;20129;-48
2022/01/11 02:57:35;;;;;;;41.78;28.38;;;29.70;67.80;;;;;;4094981;28;21092;-45
2022/01/11 02:59:37;;;;;;;33.03;26.90;;;29.70;68.00;;;;;;4093489;28;20046;-50
2022/01/11 03:01:39;;;;;;;28.77;24.40;;;29.80;68.70;;;;;;4022946;28;20041;-51
2022/01/11 03:03:43;;;;;;;26.35;23.05;;;29.80;69.30;;;;;;4096509;28;21832;-47
2022/01/11 03:06:00;;;;;;;21.52;18.92;;;29.80;69.50;;;;;;4092831;28;20386;-51
2022/01/11 03:08:03;;;;;;;17.38;14.85;;;29.90;69.60;;;;;;4111456;28;20044;-48
2022/01/11 03:10:28;;;;;;;19.77;15.63;;;29.90;69.70;;;;;;4093411;28;20475;-50
2022/01/11 03:12:32;;;;;;;26.80;22.63;;;29.90;68.90;;;;;;4102228;28;20038;-46
2022/01/11 03:14:33;;;;;;;;;;;29.80;64.60;;;;;;4095703;28;20042;-48
2022/01/11 03:16:35;;;;;;;40.50;33.25;;;29.70;63.40;;;;;;4096296;28;19924;-51
2022/01/11 03:18:37;;;;;;;39.70;33.00;;;29.50;61.60;;;;;;4104274;28;20106;-48
2022/01/11 03:20:41;;;;;;;43.08;36.85;;;29.30;60.90;;;;;;4093909;28;20037;-51
2022/01/11 03:22:43;;;;;;;40.30;34.22;;;29.10;59.80;;;;;;4094567;28;20062;-48
2022/01/11 03:24:45;;;;;;;40.20;33.27;;;28.90;59.60;;;;;;4101364;28;20045;-46
2022/01/11 03:26:47;;;;;;;39.55;33.20;;;28.70;59.30;;;;;;4096327;28;21142;-47
2022/01/11 03:28:50;;;;;;;39.67;32.65;;;28.50;58.40;;;;;;4087878;28;20029;-51
2022/01/11 03:30:54;;;;;;;36.05;31.05;;;28.40;58.40;;;;;;4086216;28;20069;-47
2022/01/11 03:32:56;;;;;;;34.33;28.25;;;28.20;58.20;;;;;;4095500;28;20037;-45
2022/01/11 03:34:58;;;;;;;35.10;28.83;;;28.00;58.00;;;;;;4099128;28;20038;-47
2022/01/11 03:37:01;;;;;;;35.43;28.43;;;27.90;57.60;;;;;;4085647;28;20037;-47
2022/01/11 03:39:03;;;;;;;36.80;30.27;;;27.80;57.20;;;;;;4095835;28;20056;-46
2022/01/11 03:41:05;;;;;;;34.25;29.40;;;27.70;57.60;;;;;;4092314;28;20054;-51
2022/01/11 03:43:08;;;;;;;36.58;29.95;;;27.60;57.50;;;;;;4087624;28;20048;-50
2022/01/11 03:45:11;;;;;;;36.40;28.85;;;27.50;57.80;;;;;;4088638;28;20140;-49
2022/01/11 03:47:13;;;;;;;;;;;27.40;57.40;;;;;;4100406;28;20041;-51
2022/01/11 03:49:15;;;;;;;39.92;31.75;;;27.30;57.40;;;;;;4087130;28;20035;-50
2022/01/11 03:51:17;;;;;;;40.92;32.58;;;27.20;57.20;;;;;;4089369;28;20450;-45
2022/01/11 03:53:23;;;;;;;38.15;30.50;;;27.10;56.60;;;;;;4096111;28;20874;-51
2022/01/11 03:55:44;;;;;;;38.28;31.65;;;27.00;57.20;;;;;;4097216;28;20426;-48
2022/01/11 03:57:47;;;;;;;40.00;32.30;;;26.90;57.20;;;;;;4091810;28;20464;-48
2022/01/11 03:59:49;;;;;;;39.30;31.92;;;26.80;57.10;;;;;;4099682;28;20050;-52
2022/01/11 04:01:51;;;;;;;38.05;30.45;;;26.60;56.30;;;;;;4087420;28;20141;-50
2022/01/11 04:03:54;;;;;;;35.50;28.48;;;26.50;57.10;;;;;;4089587;28;20108;-45
2022/01/11 04:05:56;;;;;;;34.85;27.75;;;26.40;57.20;;;;;;4096578;28;20041;-48
2022/01/11 04:07:58;;;;;;;33.42;25.38;;;26.40;57.10;;;;;;4087711;28;20038;-47
2022/01/11 04:10:02;;;;;;;26.83;21.97;;;26.30;57.20;;;;;;4087833;28;20044;-48
2022/01/11 04:12:04;;;;;;;25.10;19.92;;;26.20;57.20;;;;;;4093455;28;20295;-48
2022/01/11 04:14:07;;;;;;;22.58;18.15;;;26.20;57.70;;;;;;4096397;28;20742;-49
2022/01/11 04:16:09;;;;;;;19.45;14.52;;;26.10;58.40;;;;;;4089141;28;20053;-48
2022/01/11 04:18:11;;;;;;;15.37;12.47;;;26.20;59.40;;;;;;4088721;28;20046;-50
2022/01/11 04:20:14;;;;;;;13.02;9.50;;;26.40;60.10;;;;;;4088921;28;20040;-47
2022/01/11 04:22:16;;;;;;;;;;;26.50;60.60;;;;;;4077897;28;20112;-50
2022/01/11 04:24:18;;;;;;;14.30;11.38;;;26.60;61.30;;;;;;4131543;28;19912;-47
2022/01/11 04:26:20;;;;;;;13.90;11.18;;;26.60;59.60;;;;;;4114019;28;20076;-47
2022/01/11 04:28:23;;;;;;;15.55;11.82;;;26.60;58.30;;;;;;4108838;28;20797;-48
2022/01/11 04:30:25;;;;;;;13.38;9.90;;;26.40;57.70;;;;;;4103527;28;20464;-49
2022/01/11 04:32:28;;;;;;;13.10;9.53;;;26.40;58.20;;;;;;4104677;28;20096;-51
2022/01/11 04:34:30;;;;;;;;;;;26.30;57.00;;;;;;4111362;28;20079;-51
2022/01/11 04:36:33;;;;;;;10.15;8.30;;;26.30;57.00;;;;;;4102180;28;19921;-45
2022/01/11 04:38:35;;;;;;;10.07;8.07;;;26.20;57.00;;;;;;4103434;28;20819;-47
2022/01/11 04:40:40;;;;;;;11.07;7.03;;;26.20;57.80;;;;;;4147450;22;20050;-73
2022/01/11 04:43:04;;;;;;;6.95;5.22;;;26.20;58.30;;;;;;4111854;28;20306;-73
2022/01/11 04:45:26;;;;;;;7.22;5.45;;;26.30;58.80;;;;;;4119925;28;20048;-74
2022/01/11 04:47:56;;;;;;;8.60;5.45;;;26.40;60.00;;;;;;4116205;28;20056;-73
2022/01/11 04:50:18;;;;;;;6.80;4.65;;;26.40;59.00;;;;;;4116172;28;20042;-74
2022/01/11 04:52:47;;;;;;;8.68;5.85;;;26.30;58.40;;;;;;4121579;28;20041;-74
2022/01/11 04:55:10;;;;;;;6.47;4.85;;;26.10;57.50;;;;;;4112458;28;20048;-76
2022/01/11 04:57:38;;;;;;;9.07;4.72;;;26.10;58.70;;;;;;4122319;28;20056;-78
2022/01/11 05:00:05;;;;;;;7.80;4.47;;;26.20;59.40;;;;;;4116915;28;20071;-80
2022/01/11 05:02:27;;;;;;;5.80;3.92;;;26.40;60.00;;;;;;4108413;28;21634;-77
2022/01/11 05:04:50;;;;;;;5.63;3.38;;;26.40;60.40;;;;;;4119927;28;20029;-78
2022/01/11 05:07:13;;;;;;;5.65;3.15;;;26.60;61.10;;;;;;4119107;28;20128;-77
2022/01/11 05:09:35;;;;;;;5.53;3.40;;;26.70;61.60;;;;;;4123105;28;20246;-74
2022/01/11 05:12:24;;;;;;;4.75;3.10;;;26.70;61.60;;;;;;4124155;28;20161;-78
2022/01/11 05:14:50;;;;;;;5.35;3.40;;;26.80;62.30;;;;;;4121375;28;20056;-75
2022/01/11 05:17:19;;;;;;;4.22;2.63;;;26.90;61.70;;;;;;4120479;28;20107;-80
2022/01/11 05:19:47;;;;;;;4.55;3.00;;;27.00;62.50;;;;;;4124322;28;20045;-78
2022/01/11 05:22:19;;;;;;;6.38;3.40;;;27.00;62.60;;;;;;4119033;28;20423;-82
2022/01/11 05:25:02;;;;;;;8.77;4.55;;;27.10;63.60;;;;;;4114637;28;20041;-83
2022/01/11 05:27:27;;;;;;;8.82;4.80;;;27.20;64.60;;;;;;4118423;28;20037;-78
2022/01/11 05:29:49;;;;;;;5.90;3.70;;;27.20;64.70;;;;;;4117306;28;20955;-79
2022/01/11 05:32:12;;;;;;;8.85;4.13;;;27.30;64.50;;;;;;4123019;28;20037;-76
2022/01/11 05:34:38;;;;;;;6.57;3.72;;;27.30;64.50;;;;;;4119949;28;21025;-77
2022/01/11 05:37:03;;;;;;;5.78;3.13;;;27.40;64.90;;;;;;4118153;28;20132;-77
2022/01/11 05:42:10;;;;;;;7.28;2.90;;;27.50;64.80;;;;;;4129161;28;20061;-75
2022/01/11 05:44:36;;;;;;;5.40;2.65;;;27.50;64.70;;;;;;4117399;28;20157;-75
2022/01/11 05:46:59;;;;;;;5.78;2.95;;;27.60;64.60;;;;;;4122694;28;20041;-76
2022/01/11 05:49:24;;;;;;;4.28;2.60;;;27.60;64.50;;;;;;4150778;28;20028;-81
2022/01/11 05:51:47;;;;;;;4.70;2.38;;;27.70;64.40;;;;;;4126791;28;20080;-76
2022/01/11 05:54:12;;;;;;;3.85;2.40;;;27.70;64.70;;;;;;4149743;28;20044;-83
2022/01/11 05:56:35;;;;;;;4.13;2.20;;;27.80;65.10;;;;;;4149551;28;20044;-77
2022/01/11 05:58:58;;;;;;;4.20;2.33;;;27.80;65.30;;;;;;4129781;28;20127;-80
2022/01/11 06:01:23;;;;;;;4.13;2.30;;;27.90;65.60;;;;;;4150536;28;21271;-73
2022/01/11 06:03:50;;;;;;;8.60;2.20;;;27.90;65.70;;;;;;4150004;28;20115;-80
2022/01/11 06:06:13;;;;;;;3.53;2.05;;;27.90;65.80;;;;;;4128108;28;22160;-78
2022/01/11 06:08:36;;;;;;;3.97;2.25;;;28.00;66.00;;;;;;4139937;28;20550;-73
2022/01/11 06:10:58;;;;;;;4.20;1.80;;;28.00;66.20;;;;;;4127579;28;21650;-78
2022/01/11 06:13:21;;;;;;;4.38;2.03;;;28.00;66.10;;;;;;4143568;28;21443;-74
2022/01/11 06:15:43;;;;;;;3.10;1.52;;;28.10;66.20;;;;;;4155714;28;20063;-74
2022/01/11 06:18:06;;;;;;;4.43;1.92;;;28.20;66.20;;;;;;4143759;28;20045;-76
2022/01/11 06:20:32;;;;;;;4.63;1.75;;;28.20;65.70;;;;;;4128846;28;21058;-77
2022/01/11 06:22:58;;;;;;;4.45;1.95;;;28.20;65.90;;;;;;4154864;28;20090;-79
2022/01/11 06:25:21;;;;;;;4.63;1.80;;;28.20;65.70;;;;;;4148059;28;20486;-78
2022/01/11 06:27:44;;;;;;;3.63;1.53;;;28.30;65.60;;;;;;4141592;28;20103;-78
2022/01/11 06:30:10;;;;;;;3.33;1.83;;;28.30;65.50;;;;;;4160228;28;20041;-76
2022/01/11 06:32:48;;;;;;;3.33;1.50;;;28.30;65.30;;;;;;4153913;28;20036;-81
2022/01/11 06:35:19;;;;;;;3.38;1.40;;;28.30;65.20;;;;;;4153541;28;20037;-81
2022/01/11 06:37:46;;;;;;;2.50;1.40;;;28.30;65.10;;;;;;4162755;28;20123;-77
2022/01/11 06:40:11;;;;;;;4.25;1.77;;;28.40;65.10;;;;;;4150660;28;20114;-79
2022/01/11 06:42:34;;;;;;;2.25;1.25;;;28.40;65.00;;;;;;4154067;28;20049;-77
2022/01/11 06:44:57;;;;;;;3.47;1.70;;;28.40;65.00;;;;;;4155186;28;20052;-75
2022/01/11 06:47:19;;;;;;;2.10;1.13;;;28.40;64.90;;;;;;4148115;28;20041;-76
2022/01/11 06:49:42;;;;;;;3.17;1.63;;;28.40;64.90;;;;;;4151181;28;20041;-78
2022/01/11 06:52:08;;;;;;;2.53;1.30;;;28.40;64.80;;;;;;4152376;28;20041;-80
2022/01/11 06:54:31;;;;;;;3.33;1.45;;;28.40;65.00;;;;;;4128415;28;20736;-78
2022/01/11 06:56:54;;;;;;;2.83;1.30;;;28.50;65.00;;;;;;4135335;28;20051;-77
2022/01/11 06:59:20;;;;;;;3.53;1.27;;;28.50;64.90;;;;;;4134193;28;20278;-78
2022/01/11 07:01:43;;;;;;;2.65;1.45;;;28.50;64.80;;;;;;4132758;28;20046;-75
2022/01/11 07:04:08;;;;;;;1.58;0.85;;;28.50;64.80;;;;;;4152999;28;20043;-77
2022/01/11 07:06:31;;;;;;;4.20;1.85;;;28.50;64.80;;;;;;4141539;28;20040;-73
2022/01/11 07:08:53;;;;;;;3.25;1.50;;;28.60;64.90;;;;;;4141406;28;20041;-73
2022/01/11 07:11:16;;;;;;;3.80;1.50;;;28.60;64.90;;;;;;4134832;28;20045;-76
2022/01/11 07:13:38;;;;;;;2.67;1.67;;;28.60;64.80;;;;;;4126703;28;20037;-77
2022/01/11 07:16:01;;;;;;;2.90;1.60;;;28.60;65.10;;;;;;4124713;28;20844;-80
2022/01/11 07:18:23;;;;;;;4.28;1.83;;;28.70;66.00;;;;;;4144450;28;20049;-75
2022/01/11 07:20:46;;;;;;;4.07;1.13;;;28.70;66.30;;;;;;4139218;28;20049;-76
2022/01/11 07:23:10;;;;;;;2.90;1.50;;;28.70;66.40;;;;;;4124158;28;20095;-76
2022/01/11 07:25:32;;;;;;;;;;;28.70;66.50;;;;;;4145457;28;20044;-78
2022/01/11 07:27:55;;;;;;;3.75;1.60;;;28.70;66.70;;;;;;4129265;28;19963;-71
2022/01/11 07:30:17;;;;;;;2.03;1.50;;;28.70;67.00;;;;;;4120061;28;20786;-74
2022/01/11 07:32:40;;;;;;;3.50;1.50;;;28.70;66.80;;;;;;4141433;28;21131;-74
2022/01/11 07:35:04;;;;;;;3.25;1.60;;;28.70;67.00;;;;;;4123918;28;20729;-72
2022/01/11 07:37:27;;;;;;;5.38;1.55;;;28.70;67.00;;;;;;4118962;28;20046;-73
2022/01/11 07:39:49;;;;;;;2.92;1.75;;;28.70;67.20;;;;;;4139629;28;20049;-78
2022/01/11 07:42:12;;;;;;;3.70;1.80;;;28.70;67.20;;;;;;4136701;28;20045;-75
2022/01/11 07:44:34;;;;;;;2.40;1.45;;;28.70;67.30;;;;;;4132253;28;20075;-72
2022/01/11 07:46:57;;;;;;;4.13;1.60;;;28.80;67.40;;;;;;4134361;28;20054;-75
2022/01/11 07:49:20;;;;;;;3.38;1.33;;;28.80;67.40;;;;;;4137315;28;20094;-72
2022/01/11 07:51:43;;;;;;;2.20;1.33;;;28.80;67.30;;;;;;4131699;28;20037;-74
2022/01/11 07:54:06;;;;;;;3.20;1.60;;;28.80;67.30;;;;;;4134413;28;21468;-75
2022/01/11 07:56:29;;;;;;;4.15;1.52;;;28.80;67.40;;;;;;4134613;28;20051;-75
2022/01/11 07:58:51;;;;;;;5.60;1.67;;;28.80;67.40;;;;;;4122301;28;20450;-72
2022/01/11 08:01:14;;;;;;;1.95;1.33;;;28.80;67.40;;;;;;4120769;28;21566;-75
2022/01/11 08:03:37;;;;;;;2.63;1.50;;;28.80;67.40;;;;;;4139616;28;20147;-84
2022/01/11 08:05:59;;;;;;;4.30;1.67;;;28.80;67.40;;;;;;4117793;28;20052;-75
2022/01/11 08:08:22;;;;;;;4.28;1.52;;;28.90;67.50;;;;;;4137608;28;21482;-74
2022/01/11 08:10:44;;;;;;;2.53;1.50;;;28.90;67.50;;;;;;4128643;28;20053;-74
2022/01/11 08:13:09;;;;;;;2.83;1.43;;;28.90;67.50;;;;;;4133895;28;20048;-76
2022/01/11 08:15:33;;;;;;;3.00;1.23;;;28.90;67.60;;;;;;4122661;28;20147;-76
2022/01/11 08:17:54;;;;;;;;;;;28.90;67.50;;;;;;4140586;28;20188;-76
2022/01/11 08:20:17;;;;;;;3.08;1.20;;;28.90;67.50;;;;;;4133703;28;20086;-77
2022/01/11 08:22:39;;;;;;;2.97;1.67;;;28.90;67.50;;;;;;4137968;28;20265;-72
2022/01/11 08:25:02;;;;;;;1.98;1.20;;;28.90;67.50;;;;;;4141861;28;20036;-76
2022/01/11 08:27:25;;;;;;;2.25;1.10;;;28.90;67.50;;;;;;4132427;28;20039;-73
2022/01/11 08:29:47;;;;;;;3.35;1.30;;;29.00;67.60;;;;;;4133927;28;20168;-72
2022/01/11 08:32:10;;;;;;;1.88;1.00;;;29.00;67.50;;;;;;4143839;28;20028;-72
2022/01/11 08:34:32;;;;;;;2.10;1.10;;;29.00;67.50;;;;;;4136550;28;20478;-73
2022/01/11 08:36:55;;;;;;;2.30;1.23;;;29.00;67.50;;;;;;4137519;28;20773;-77
2022/01/11 08:39:18;;;;;;;3.08;1.30;;;29.00;67.10;;;;;;4142203;28;20049;-75
2022/01/11 08:41:41;;;;;;;2.38;1.10;;;29.00;67.50;;;;;;4132280;28;20048;-74
2022/01/11 08:44:09;;;;;;;2.70;1.17;;;29.00;67.50;;;;;;4134164;28;20040;-74
2022/01/11 08:46:32;;;;;;;2.08;0.70;;;29.10;67.60;;;;;;4141812;28;20486;-75
2022/01/11 08:48:55;;;;;;;2.63;1.23;;;29.10;67.60;;;;;;4121584;28;20075;-77
2022/01/11 08:51:18;;;;;;;1.77;1.10;;;29.10;67.10;;;;;;4140211;28;20048;-75
2022/01/11 08:53:41;;;;;;;1.60;1.05;;;29.10;67.60;;;;;;4143159;28;20048;-75
2022/01/11 08:56:07;;;;;;;1.25;0.75;;;29.10;67.60;;;;;;4136865;28;20040;-75
2022/01/11 08:58:29;;;;;;;2.00;0.85;;;29.10;67.60;;;;;;4145911;28;20041;-75
2022/01/11 09:00:53;;;;;;;1.42;0.80;;;29.10;67.60;;;;;;4130809;28;20874;-77
2022/01/11 09:03:16;;;;;;;1.75;1.00;;;29.10;67.60;;;;;;4118663;28;20033;-77
2022/01/11 09:05:39;;;;;;;2.20;0.95;;;29.10;67.50;;;;;;4145943;28;20079;-75
2022/01/11 09:08:01;;;;;;;2.17;0.98;;;29.10;67.60;;;;;;4138236;28;20037;-77
2022/01/11 09:10:24;;;;;;;1.97;1.00;;;29.10;67.60;;;;;;4123372;28;20041;-74
2022/01/11 09:12:50;;;;;;;1.88;1.20;;;29.10;67.60;;;;;;4146606;28;20285;-75
2022/01/11 09:15:13;;;;;;;1.73;0.82;;;29.10;67.70;;;;;;4122988;28;20812;-79
2022/01/11 09:17:35;;;;;;;;;;;29.10;68.00;;;;;;4124461;28;20061;-74
2022/01/11 09:19:58;;;;;;;3.22;1.20;;;29.20;68.30;;;;;;4142287;28;20020;-75
2022/01/11 09:22:21;;;;;;;3.53;0.80;;;29.20;68.60;;;;;;4136452;28;20039;-75
2022/01/11 09:24:43;;;;;;;2.42;0.80;;;29.20;68.50;;;;;;4141410;28;20329;-77
2022/01/11 09:27:07;;;;;;;2.03;0.65;;;29.20;68.60;;;;;;4151667;28;20079;-80
2022/01/11 09:29:32;;;;;;;2.03;0.90;;;29.20;68.60;;;;;;4131905;28;20041;-81
2022/01/11 09:31:57;;;;;;;2.33;1.27;;;29.20;68.60;;;;;;4143478;28;20071;-81
2022/01/11 09:34:20;;;;;;;1.77;0.77;;;29.20;68.50;;;;;;4137897;28;20102;-73
2022/01/11 09:36:42;;;;;;;2.28;0.70;;;29.20;68.60;;;;;;4140565;28;20052;-74
2022/01/11 09:39:05;;;;;;;1.40;0.70;;;29.20;68.60;;;;;;4137300;28;20127;-75
2022/01/11 09:41:28;;;;;;;2.28;0.90;;;29.20;68.80;;;;;;4148495;28;20505;-78
2022/01/11 09:43:51;;;;;;;2.42;1.13;;;29.20;68.90;;;;;;4147056;28;20036;-78
2022/01/11 09:46:14;;;;;;;1.73;0.85;;;29.20;69.10;;;;;;4151745;28;20040;-76
2022/01/11 09:48:37;;;;;;;2.30;1.00;;;29.20;69.10;;;;;;4162781;28;20078;-75
2022/01/11 09:51:00;;;;;;;1.93;0.97;;;29.20;69.10;;;;;;4148581;28;20040;-75
2022/01/11 09:53:22;;;;;;;;;;;29.20;68.90;;;;;;4151547;28;20048;-75
2022/01/11 09:55:45;;;;;;;1.35;0.60;;;29.30;69.20;;;;;;4152785;28;20071;-75
2022/01/11 09:58:08;;;;;;;2.92;0.88;;;29.30;69.30;;;;;;4155026;28;20752;-75
2022/01/11 10:00:31;;;;;;;2.47;0.90;;;29.30;69.30;;;;;;4152637;28;20688;-74
2022/01/11 10:02:54;;;;;;;1.85;0.85;;;29.40;69.40;;;;;;4155774;28;20536;-75
2022/01/11 10:05:17;;;;;;;3.45;0.82;;;29.40;69.20;;;;;;4157181;28;20037;-77
2022/01/11 10:07:41;;;;;;;2.67;0.80;;;29.40;69.20;;;;;;4155212;28;20060;-74
2022/01/11 10:10:05;;;;;;;2.47;0.70;;;29.40;69.20;;;;;;4154853;28;20292;-76
2022/01/11 10:12:34;;;;;;;2.22;0.70;;;29.40;69.00;;;;;;4161722;28;20195;-74
2022/01/11 10:14:58;;;;;;;1.00;0.55;;;29.40;68.90;;;;;;4156406;28;20044;-75
2022/01/11 10:17:27;;;;;;;1.73;0.90;;;29.40;69.00;;;;;;4163201;28;20252;-73
2022/01/11 10:20:03;;;;;;;0.68;0.60;;;29.50;69.10;;;;;;4159402;28;20029;-73
2022/01/11 10:22:25;;;;;;;2.10;0.50;;;29.50;69.20;;;;;;4159119;28;20049;-74
2022/01/11 10:24:50;;;;;;;0.82;0.73;;;29.50;69.00;;;;;;4158983;28;20028;-75
2022/01/11 10:27:15;;;;;;;2.50;0.82;;;29.50;69.10;;;;;;4151531;28;20040;-75
2022/01/11 10:29:43;;;;;;;2.65;0.90;;;29.50;69.20;;;;;;4154796;28;20033;-74
2022/01/11 10:32:30;;;;;;;1.33;0.60;;;29.50;69.40;;;;;;4159618;28;20190;-75
2022/01/11 10:34:58;;;;;;;1.77;0.60;;;29.50;69.20;;;;;;4162953;28;20111;-75
2022/01/11 10:37:31;;;;;;;1.73;0.70;;;29.50;69.30;;;;;;4159621;28;20040;-74
2022/01/11 10:40:06;;;;;;;1.10;0.55;;;29.60;69.20;;;;;;4150044;28;20041;-74
2022/01/11 10:42:33;;;;;;;2.05;0.68;;;29.60;69.30;;;;;;4157480;28;20044;-73
2022/01/11 10:45:07;;;;;;;1.67;0.70;;;29.60;69.30;;;;;;4159943;28;20565;-78
2022/01/11 10:47:37;;;;;;;2.45;0.95;;;29.60;69.30;;;;;;4142925;28;22146;-75
2022/01/11 10:50:28;;;;;;;1.88;0.80;;;29.60;69.30;;;;;;4152817;28;20033;-73
2022/01/11 10:52:50;;;;;;;4.78;1.35;;;29.60;68.90;;;;;;4137017;28;20040;-72
2022/01/11 10:55:19;;;;;;;4.68;1.35;;;29.60;68.50;;;;;;4161839;28;20044;-75
2022/01/11 10:57:44;;;;;;;2.95;1.20;;;29.60;68.50;;;;;;4151791;28;20037;-74
2022/01/11 11:00:17;;;;;;;3.40;1.48;;;29.60;68.40;;;;;;4157494;28;20038;-74
2022/01/11 11:02:42;;;;;;;3.70;1.13;;;29.60;68.00;;;;;;4132784;28;20049;-75
2022/01/11 11:05:11;;;;;;;4.53;1.67;;;29.60;67.70;;;;;;4160131;28;20044;-75
2022/01/11 11:07:35;;;;;;;5.47;1.30;;;29.60;67.50;;;;;;4154967;28;20801;-77
2022/01/11 11:09:58;;;;;;;5.75;1.85;;;29.60;67.60;;;;;;4155771;28;20051;-76
2022/01/11 11:12:23;;;;;;;4.80;1.50;;;29.60;67.40;;;;;;4148351;28;20108;-75
2022/01/11 11:14:58;;;;;;;5.15;1.60;;;29.60;67.30;;;;;;4135703;28;20838;-74
2022/01/11 11:17:36;;;;;;;6.65;1.65;;;29.50;67.20;;;;;;4158540;28;20068;-75
2022/01/11 11:20:06;;;;;;;4.55;1.70;;;29.50;67.00;;;;;;4156893;28;20061;-75
2022/01/11 11:22:30;;;;;;;8.02;1.63;;;29.50;66.70;;;;;;4150544;28;20148;-77
2022/01/11 11:24:53;;;;;;;5.80;2.13;;;29.50;66.70;;;;;;4153723;28;20052;-76
2022/01/11 11:27:15;;;;;;;5.90;1.70;;;29.50;66.70;;;;;;4157911;28;20041;-77
2022/01/11 11:29:38;;;;;;;6.88;2.00;;;29.50;66.40;;;;;;4149934;28;20127;-77
2022/01/11 11:32:01;;;;;;;5.13;1.80;;;29.50;66.50;;;;;;4155121;28;20120;-74
2022/01/11 11:34:24;;;;;;;5.85;1.58;;;29.50;66.40;;;;;;4162054;28;20068;-77
2022/01/11 11:36:47;;;;;;;6.65;1.50;;;29.50;66.40;;;;;;4154141;28;20050;-73
2022/01/11 11:39:22;;;;;;;6.15;1.58;;;29.50;66.40;;;;;;4153569;28;20040;-76
2022/01/11 11:41:51;;;;;;;5.93;1.73;;;29.40;66.40;;;;;;4153432;28;20155;-76
2022/01/11 11:44:20;;;;;;;6.15;1.80;;;29.40;66.30;;;;;;4148856;28;20060;-80
2022/01/11 11:46:49;;;;;;;4.35;1.60;;;29.40;66.30;;;;;;4153821;28;20243;-81
2022/01/11 11:49:13;;;;;;;6.57;1.40;;;29.40;66.10;;;;;;4161085;28;20099;-80
2022/01/11 11:51:40;;;;;;;5.65;1.80;;;29.40;66.00;;;;;;4151466;28;20071;-80